Time;durP1;ratioP1;P1;durP2;ratioP2;P2;SDS_P1;SDS_P2;PMS_P1;PMS_P2;Temp;Humidity;BMP_temperature;BMP_pressure;BME280_temperature;BME280_humidity;BME280_pressure;Samples;Min_cycle;Max_cycle;Signal;HPM_P1;HPM_P2
2024/01/01 00:00:26;;;;;;;34.00;22.45;;;6.00;99.90;;;;;;6199861;23;20013;-72
2024/01/01 00:02:52;;;;;;;34.28;23.10;;;6.00;99.90;;;;;;6198610;23;20378;-72
2024/01/01 00:05:18;;;;;;;32.20;21.80;;;6.00;99.90;;;;;;6200188;23;20423;-72
2024/01/01 00:07:45;;;;;;;33.17;22.88;;;6.00;99.90;;;;;;6200801;23;20039;-72
2024/01/01 00:10:10;;;;;;;33.35;22.42;;;5.90;99.90;;;;;;6200750;23;20009;-72
2024/01/01 00:12:36;;;;;;;33.17;22.15;;;5.90;99.90;;;;;;6201159;23;20024;-71
2024/01/01 00:15:01;;;;;;;30.02;21.65;;;5.90;99.90;;;;;;6200926;23;20008;-66
2024/01/01 00:17:27;;;;;;;27.65;21.15;;;5.90;99.90;;;;;;6200553;23;20001;-65
2024/01/01 00:19:52;;;;;;;31.52;21.27;;;5.80;99.90;;;;;;6196442;23;20017;-65
2024/01/01 00:22:18;;;;;;;27.73;20.10;;;5.80;99.90;;;;;;6199278;23;20055;-65
2024/01/01 00:24:44;;;;;;;28.02;22.15;;;5.80;99.90;;;;;;6200745;23;20043;-66
2024/01/01 00:27:09;;;;;;;34.17;23.42;;;5.80;99.90;;;;;;6198427;23;20349;-66
2024/01/01 00:29:35;;;;;;;33.05;22.95;;;5.80;99.90;;;;;;6199178;23;20332;-66
2024/01/01 00:32:00;;;;;;;31.73;22.75;;;5.70;99.90;;;;;;6199824;23;20008;-66
2024/01/01 00:34:26;;;;;;;30.30;21.23;;;5.80;99.90;;;;;;6198109;23;20004;-70
2024/01/01 00:36:52;;;;;;;32.10;22.80;;;5.80;99.90;;;;;;6200782;23;20001;-70
2024/01/01 00:39:17;;;;;;;29.70;21.65;;;5.80;99.90;;;;;;6199147;23;20106;-71
2024/01/01 00:41:46;;;;;;;32.33;23.17;;;5.80;99.90;;;;;;6196303;23;20083;-70
2024/01/01 00:44:11;;;;;;;29.25;20.95;;;5.80;99.90;;;;;;6194807;23;20469;-71
2024/01/01 00:46:37;;;;;;;32.10;23.00;;;5.70;99.90;;;;;;6197947;23;20016;-70
2024/01/01 00:49:02;;;;;;;34.00;22.67;;;5.70;99.90;;;;;;6197557;23;20008;-71
2024/01/01 00:51:28;;;;;;;32.15;22.40;;;5.70;99.90;;;;;;6200203;23;20014;-71
2024/01/01 00:53:53;;;;;;;33.05;21.50;;;5.60;99.90;;;;;;6198939;23;20288;-72
2024/01/01 00:56:19;;;;;;;30.08;20.13;;;5.60;99.90;;;;;;6199299;23;20559;-71
2024/01/01 00:58:45;;;;;;;31.80;22.30;;;5.60;99.90;;;;;;6197509;23;20032;-71
2024/01/01 01:01:10;;;;;;;33.10;23.08;;;5.60;99.90;;;;;;6193475;23;20043;-72
2024/01/01 01:03:36;;;;;;;34.17;23.02;;;5.70;99.90;;;;;;6200661;23;20434;-66
2024/01/01 01:06:02;;;;;;;33.58;22.85;;;5.70;99.90;;;;;;6199354;23;20011;-70
2024/01/01 01:08:28;;;;;;;29.20;20.45;;;5.70;99.90;;;;;;6197159;23;20664;-66
2024/01/01 01:10:54;;;;;;;28.50;20.90;;;5.70;99.90;;;;;;6197940;23;20078;-66
2024/01/01 01:13:20;;;;;;;29.15;20.02;;;5.70;99.90;;;;;;6196425;23;20004;-66
2024/01/01 01:15:46;;;;;;;34.05;20.75;;;5.80;99.90;;;;;;6200303;23;20323;-66
2024/01/01 01:18:11;;;;;;;25.83;19.90;;;5.70;99.90;;;;;;6201168;23;20009;-66
2024/01/01 01:20:37;;;;;;;35.67;22.27;;;5.80;99.90;;;;;;6201376;23;20020;-66
2024/01/01 01:23:03;;;;;;;29.95;21.88;;;5.80;99.90;;;;;;6201543;23;20168;-66
2024/01/01 01:25:29;;;;;;;28.65;20.15;;;5.80;99.90;;;;;;6201565;23;20012;-66
2024/01/01 01:27:54;;;;;;;30.50;21.90;;;5.80;99.90;;;;;;6202482;23;20004;-71
2024/01/01 01:30:20;;;;;;;31.45;20.63;;;5.80;99.90;;;;;;6199054;23;20009;-71
2024/01/01 01:32:46;;;;;;;34.72;21.45;;;5.80;99.90;;;;;;6201695;23;20004;-71
2024/01/01 01:35:11;;;;;;;28.40;19.77;;;5.90;99.90;;;;;;6200045;23;20064;-71
2024/01/01 01:37:37;;;;;;;26.33;19.98;;;5.90;99.90;;;;;;6201421;23;20014;-70
2024/01/01 01:40:03;;;;;;;28.73;20.20;;;5.90;99.90;;;;;;6197546;23;20024;-72
2024/01/01 01:42:29;;;;;;;31.08;21.17;;;5.90;99.90;;;;;;6200556;23;20000;-71
2024/01/01 01:44:54;;;;;;;27.35;20.25;;;5.90;99.90;;;;;;6201580;23;20086;-66
2024/01/01 01:47:22;;;;;;;28.63;19.95;;;5.90;99.90;;;;;;6198086;23;20011;-67
2024/01/01 01:49:48;;;;;;;27.48;20.42;;;5.90;99.90;;;;;;6199606;23;20043;-68
2024/01/01 01:52:15;;;;;;;30.05;19.55;;;5.90;99.90;;;;;;6197394;23;20001;-68
2024/01/01 01:54:43;;;;;;;28.73;20.58;;;6.00;99.90;;;;;;6196544;23;20497;-68
2024/01/01 01:57:09;;;;;;;28.98;20.67;;;6.00;99.90;;;;;;6199433;23;20648;-67
2024/01/01 01:59:35;;;;;;;31.42;21.55;;;6.00;99.90;;;;;;6198621;23;20000;-67
2024/01/01 02:02:00;;;;;;;31.70;21.40;;;5.90;99.90;;;;;;6197520;23;20308;-67
2024/01/01 02:04:26;;;;;;;28.80;21.67;;;5.90;99.90;;;;;;6197217;23;20055;-71
2024/01/01 02:06:52;;;;;;;30.20;20.67;;;5.90;99.90;;;;;;6198954;23;20049;-71
2024/01/01 02:09:17;;;;;;;30.25;21.00;;;5.90;99.90;;;;;;6198122;23;20010;-71
2024/01/01 02:11:43;;;;;;;32.08;23.10;;;5.90;99.90;;;;;;6198310;23;20054;-71
2024/01/01 02:14:13;;;;;;;32.58;22.83;;;5.90;99.90;;;;;;6198501;23;20434;-71
2024/01/01 02:16:39;;;;;;;33.92;22.83;;;5.80;99.90;;;;;;6198020;23;20084;-71
2024/01/01 02:19:17;;;;;;;29.60;21.15;;;5.90;99.90;;;;;;6197791;23;20054;-71
2024/01/01 02:21:43;;;;;;;32.28;22.80;;;5.90;99.90;;;;;;6195675;23;20075;-66
2024/01/01 02:24:08;;;;;;;33.72;22.92;;;5.90;99.90;;;;;;6197709;23;20013;-66
2024/01/01 02:26:34;;;;;;;30.17;21.83;;;5.90;99.90;;;;;;6200032;23;20011;-66
2024/01/01 02:29:00;;;;;;;33.67;22.83;;;5.90;99.90;;;;;;6196948;23;20547;-66
2024/01/01 02:31:26;;;;;;;29.75;22.10;;;6.00;99.90;;;;;;6197721;23;20027;-66
2024/01/01 02:33:51;;;;;;;34.83;22.98;;;5.90;99.90;;;;;;6197912;23;20004;-66
2024/01/01 02:36:17;;;;;;;32.50;22.60;;;5.90;99.90;;;;;;6197240;23;20284;-66
2024/01/01 02:38:43;;;;;;;35.38;23.63;;;6.00;99.90;;;;;;6196031;23;20174;-66
2024/01/01 02:41:09;;;;;;;32.85;22.48;;;5.90;99.90;;;;;;6196197;23;20450;-70
2024/01/01 02:43:35;;;;;;;33.97;22.63;;;5.90;99.90;;;;;;6196379;23;20381;-71
2024/01/01 02:46:00;;;;;;;33.13;22.35;;;6.00;99.90;;;;;;6197662;23;20024;-71
2024/01/01 02:48:26;;;;;;;35.95;23.83;;;6.00;99.90;;;;;;6197656;23;20278;-71
2024/01/01 02:50:52;;;;;;;33.17;22.25;;;6.10;99.90;;;;;;6197610;23;20050;-71
2024/01/01 02:53:18;;;;;;;36.63;24.77;;;6.00;99.90;;;;;;6193677;23;20521;-71
2024/01/01 02:55:44;;;;;;;36.30;24.15;;;6.10;99.90;;;;;;6199276;23;20084;-71
2024/01/01 02:58:10;;;;;;;37.17;24.20;;;6.10;99.90;;;;;;6197922;23;20525;-71
2024/01/01 03:00:35;;;;;;;34.47;22.73;;;6.10;99.90;;;;;;6198179;23;20016;-71
2024/01/01 03:03:03;;;;;;;39.42;24.30;;;6.10;99.90;;;;;;6197639;23;20008;-71
2024/01/01 03:05:28;;;;;;;37.25;23.75;;;6.10;99.90;;;;;;6199722;23;20043;-71
2024/01/01 03:07:54;;;;;;;35.92;23.50;;;6.10;99.90;;;;;;6198296;23;20032;-71
2024/01/01 03:10:20;;;;;;;36.05;23.48;;;6.10;99.90;;;;;;6197560;23;20618;-71
2024/01/01 03:12:45;;;;;;;36.72;23.27;;;6.10;99.90;;;;;;6198683;23;20009;-72
2024/01/01 03:15:11;;;;;;;39.92;24.90;;;6.10;99.90;;;;;;6199163;23;20013;-71
2024/01/01 03:17:36;;;;;;;38.53;24.40;;;6.10;99.90;;;;;;6199063;23;20059;-65
2024/01/01 03:20:04;;;;;;;36.42;24.25;;;6.10;99.90;;;;;;6196420;23;20017;-67
2024/01/01 03:22:30;;;;;;;36.20;25.25;;;6.10;99.90;;;;;;6198046;23;20005;-67
2024/01/01 03:24:56;;;;;;;40.22;27.30;;;6.20;99.90;;;;;;6198391;23;20028;-66
2024/01/01 03:27:21;;;;;;;44.28;28.58;;;6.30;99.90;;;;;;6199151;23;20096;-67
2024/01/01 03:29:47;;;;;;;42.42;27.33;;;6.20;99.90;;;;;;6196560;23;20011;-67
2024/01/01 03:32:13;;;;;;;44.00;28.58;;;6.20;99.90;;;;;;6195465;23;20359;-67
2024/01/01 03:34:39;;;;;;;39.53;26.20;;;6.20;99.90;;;;;;6198407;23;20125;-71
2024/01/01 03:37:04;;;;;;;39.80;26.30;;;6.10;99.90;;;;;;6197673;23;20009;-67
2024/01/01 03:39:30;;;;;;;36.35;24.92;;;6.10;99.90;;;;;;6198080;23;20023;-66
2024/01/01 03:41:56;;;;;;;38.20;25.75;;;6.20;99.90;;;;;;6198720;23;20012;-67
2024/01/01 03:44:21;;;;;;;36.78;25.05;;;6.10;99.90;;;;;;6197395;23;20024;-67
2024/01/01 03:46:47;;;;;;;37.25;24.60;;;6.10;99.90;;;;;;6201391;23;20004;-66
2024/01/01 03:49:13;;;;;;;38.63;24.58;;;6.10;99.90;;;;;;6200462;23;20442;-66
2024/01/01 03:51:38;;;;;;;36.38;24.70;;;6.20;99.90;;;;;;6200609;23;20012;-66
2024/01/01 03:54:04;;;;;;;37.55;24.58;;;6.10;99.90;;;;;;6202031;23;20032;-67
2024/01/01 03:56:29;;;;;;;36.33;23.33;;;6.00;99.90;;;;;;6197474;23;20246;-70
2024/01/01 03:58:56;;;;;;;36.97;22.98;;;6.00;99.90;;;;;;6201048;23;20242;-71
2024/01/01 04:01:22;;;;;;;30.48;20.80;;;5.90;99.90;;;;;;6202351;23;20008;-71
2024/01/01 04:03:48;;;;;;;31.98;21.85;;;5.90;99.90;;;;;;6201683;23;20074;-71
2024/01/01 04:06:14;;;;;;;34.85;22.25;;;5.90;99.90;;;;;;6202289;23;20008;-71
2024/01/01 04:08:39;;;;;;;28.88;20.70;;;6.00;99.90;;;;;;6201377;23;20035;-71
2024/01/01 04:11:05;;;;;;;32.22;21.63;;;6.00;99.90;;;;;;6202920;23;20083;-71
2024/01/01 04:13:30;;;;;;;32.03;21.58;;;6.00;99.90;;;;;;6199062;23;20119;-72
2024/01/01 04:15:56;;;;;;;31.48;22.25;;;6.10;99.90;;;;;;6202673;23;20001;-71
2024/01/01 04:18:22;;;;;;;32.22;21.13;;;6.10;99.90;;;;;;6202173;23;20559;-71
2024/01/01 04:20:48;;;;;;;32.67;22.40;;;6.10;99.90;;;;;;6202302;23;20017;-71
2024/01/01 04:23:13;;;;;;;34.25;23.60;;;6.20;99.90;;;;;;6200907;23;20004;-71
2024/01/01 04:25:40;;;;;;;37.95;23.83;;;6.20;99.90;;;;;;6201320;23;20016;-71
2024/01/01 04:28:06;;;;;;;32.13;23.17;;;6.10;99.90;;;;;;6199255;23;20708;-71
2024/01/01 04:30:31;;;;;;;19.13;13.05;;;5.80;99.90;;;;;;6202247;23;20043;-68
2024/01/01 04:32:57;;;;;;;20.05;12.40;;;5.70;99.90;;;;;;6201708;23;20008;-65
2024/01/01 04:35:22;;;;;;;15.45;10.55;;;5.80;99.90;;;;;;6202809;23;20004;-65
2024/01/01 04:37:48;;;;;;;14.85;10.43;;;5.80;99.90;;;;;;6201267;23;20450;-66
2024/01/01 04:40:14;;;;;;;15.82;11.02;;;5.80;99.90;;;;;;6201795;23;20599;-66
2024/01/01 04:42:39;;;;;;;17.25;11.70;;;5.80;99.90;;;;;;6198919;23;20039;-65
2024/01/01 04:45:05;;;;;;;19.38;12.63;;;5.80;99.90;;;;;;6202102;23;20358;-66
2024/01/01 04:47:31;;;;;;;17.80;12.27;;;5.70;99.90;;;;;;6200521;23;20676;-65
2024/01/01 04:49:56;;;;;;;17.80;12.07;;;5.70;99.90;;;;;;6201361;23;20012;-68
2024/01/01 04:52:22;;;;;;;19.65;13.43;;;5.60;99.90;;;;;;6199671;23;20015;-68
2024/01/01 04:54:48;;;;;;;19.38;13.25;;;5.50;99.90;;;;;;6202486;23;20009;-68
2024/01/01 04:57:13;;;;;;;20.98;14.13;;;5.50;99.90;;;;;;6201516;23;20378;-68
2024/01/01 04:59:39;;;;;;;23.40;15.10;;;5.50;99.90;;;;;;6199487;23;20016;-68
2024/01/01 05:02:04;;;;;;;22.88;15.32;;;5.40;99.90;;;;;;6196214;23;20473;-68
2024/01/01 05:04:30;;;;;;;22.70;14.95;;;5.30;99.90;;;;;;6200863;23;20009;-68
2024/01/01 05:06:56;;;;;;;21.02;14.50;;;5.30;99.90;;;;;;6200001;23;20327;-68
2024/01/01 05:09:21;;;;;;;21.88;15.07;;;5.30;99.90;;;;;;6200043;23;20070;-68
2024/01/01 05:11:47;;;;;;;22.83;16.23;;;5.20;99.90;;;;;;6200411;23;20012;-68
2024/01/01 05:14:12;;;;;;;24.33;16.63;;;5.20;99.90;;;;;;6200865;23;20000;-67
2024/01/01 05:16:43;;;;;;;24.65;16.48;;;5.10;99.90;;;;;;6199636;23;20020;-68
2024/01/01 05:19:08;;;;;;;26.33;17.20;;;5.10;99.90;;;;;;6198078;23;20071;-68
2024/01/01 05:21:34;;;;;;;23.08;15.10;;;5.00;99.90;;;;;;6200860;23;20038;-68
2024/01/01 05:23:59;;;;;;;25.05;16.38;;;5.00;99.90;;;;;;6199717;23;20385;-67
2024/01/01 05:26:25;;;;;;;24.55;16.15;;;5.00;99.90;;;;;;6201288;23;20107;-68
2024/01/01 05:28:50;;;;;;;21.77;15.18;;;5.00;99.90;;;;;;6198901;23;20012;-68
2024/01/01 05:31:20;;;;;;;22.73;15.80;;;5.00;99.90;;;;;;6199309;23;20459;-67
2024/01/01 05:33:46;;;;;;;23.35;15.52;;;4.90;99.90;;;;;;6197355;23;20011;-67
2024/01/01 05:36:13;;;;;;;24.40;15.75;;;5.00;99.90;;;;;;6199638;23;20005;-68
2024/01/01 05:38:39;;;;;;;23.20;16.02;;;4.90;99.90;;;;;;6199911;23;20009;-67
2024/01/01 05:41:04;;;;;;;24.73;16.15;;;4.90;99.90;;;;;;6200199;23;20019;-67
2024/01/01 05:43:31;;;;;;;24.48;16.33;;;4.90;99.90;;;;;;6201199;23;20316;-68
2024/01/01 05:45:57;;;;;;;24.55;15.80;;;4.90;99.90;;;;;;6201324;23;20632;-65
2024/01/01 05:48:22;;;;;;;25.90;17.05;;;4.90;99.90;;;;;;6199639;23;20004;-65
2024/01/01 05:50:48;;;;;;;26.85;16.92;;;4.90;99.90;;;;;;6199738;23;20012;-65
2024/01/01 05:53:13;;;;;;;23.77;15.07;;;4.80;99.90;;;;;;6198655;23;20007;-65
2024/01/01 05:55:39;;;;;;;24.60;16.20;;;4.80;99.90;;;;;;6200946;23;20030;-65
2024/01/01 05:58:05;;;;;;;27.80;17.75;;;4.80;99.90;;;;;;6198817;23;19996;-65
2024/01/01 06:00:36;;;;;;;28.10;17.40;;;4.80;99.90;;;;;;6201495;23;20013;-65
2024/01/01 06:03:05;;;;;;;29.67;17.67;;;4.80;99.90;;;;;;6199833;23;20008;-65
2024/01/01 06:05:35;;;;;;;30.25;18.05;;;4.70;99.90;;;;;;6200257;23;20404;-65
2024/01/01 06:08:03;;;;;;;32.72;19.05;;;4.70;99.90;;;;;;6200732;23;20062;-65
2024/01/01 06:10:31;;;;;;;32.70;18.05;;;4.60;99.90;;;;;;6199822;23;20009;-65
2024/01/01 06:12:57;;;;;;;30.80;17.83;;;4.60;99.90;;;;;;6201973;23;20015;-65
2024/01/01 06:15:27;;;;;;;34.83;19.90;;;4.60;99.90;;;;;;6196966;23;20009;-65
2024/01/01 06:17:52;;;;;;;39.55;23.70;;;4.60;99.90;;;;;;6199345;23;20011;-65
2024/01/01 06:20:18;;;;;;;30.90;18.10;;;4.60;99.90;;;;;;6199184;23;20016;-65
2024/01/01 06:22:47;;;;;;;32.28;19.83;;;4.60;99.90;;;;;;6200159;23;20004;-67
2024/01/01 06:25:12;;;;;;;29.88;19.45;;;4.60;99.90;;;;;;6200292;23;20055;-68
2024/01/01 06:27:38;;;;;;;28.63;17.95;;;4.60;99.90;;;;;;6200401;23;20909;-67
2024/01/01 06:30:05;;;;;;;29.73;16.77;;;4.60;99.90;;;;;;6198056;23;20434;-68
2024/01/01 06:32:31;;;;;;;31.50;18.10;;;4.70;99.90;;;;;;6200289;23;20529;-68
2024/01/01 06:34:57;;;;;;;29.95;18.58;;;4.70;99.90;;;;;;6200518;23;20026;-68
2024/01/01 06:37:22;;;;;;;29.05;17.25;;;4.60;99.90;;;;;;6199097;23;20005;-68
2024/01/01 06:39:48;;;;;;;23.83;15.73;;;4.70;99.90;;;;;;6200006;23;20774;-68
2024/01/01 06:42:15;;;;;;;26.85;15.48;;;4.60;99.90;;;;;;6199308;23;20020;-68
2024/01/01 06:44:41;;;;;;;22.95;14.80;;;4.60;99.90;;;;;;6201747;23;20035;-68
2024/01/01 06:47:07;;;;;;;24.95;15.98;;;4.60;99.90;;;;;;6198680;23;20008;-68
2024/01/01 06:49:33;;;;;;;20.23;14.20;;;4.70;99.90;;;;;;6200303;23;20005;-68
2024/01/01 06:51:59;;;;;;;17.90;11.63;;;4.70;99.90;;;;;;6198923;23;20012;-68
2024/01/01 06:54:24;;;;;;;16.88;11.70;;;4.60;99.90;;;;;;6200059;23;20465;-68
2024/01/01 06:56:50;;;;;;;20.55;11.93;;;4.60;99.90;;;;;;6199307;23;20005;-68
2024/01/01 06:59:16;;;;;;;17.40;10.40;;;4.60;99.90;;;;;;6199275;23;20016;-68
2024/01/01 07:01:43;;;;;;;15.98;9.50;;;4.60;99.90;;;;;;6195532;23;20024;-68
2024/01/01 07:04:09;;;;;;;17.35;10.13;;;4.50;99.90;;;;;;6198246;23;20005;-68
2024/01/01 07:06:36;;;;;;;15.07;9.63;;;4.50;99.90;;;;;;6200089;23;20008;-68
2024/01/01 07:09:02;;;;;;;13.13;8.73;;;4.40;99.90;;;;;;6198939;23;20361;-68
2024/01/01 07:11:28;;;;;;;13.15;8.57;;;4.50;99.90;;;;;;6201839;23;20007;-68
2024/01/01 07:13:53;;;;;;;11.43;8.50;;;4.50;99.90;;;;;;6199791;23;20008;-68
2024/01/01 07:16:19;;;;;;;13.00;8.35;;;4.50;99.90;;;;;;6200786;23;20012;-65
2024/01/01 07:18:46;;;;;;;10.73;7.70;;;4.50;99.90;;;;;;6201958;23;20015;-65
2024/01/01 07:21:12;;;;;;;12.75;8.27;;;4.60;99.90;;;;;;6201710;23;20099;-65
2024/01/01 07:23:37;;;;;;;12.38;8.52;;;4.60;99.90;;;;;;6200785;23;20462;-65
2024/01/01 07:26:04;;;;;;;13.88;8.38;;;4.60;99.90;;;;;;6203582;23;20022;-65
2024/01/01 07:28:29;;;;;;;15.40;9.80;;;4.60;99.90;;;;;;6202727;23;20001;-66
2024/01/01 07:30:57;;;;;;;13.23;9.25;;;4.70;99.90;;;;;;6201470;23;20011;-65
2024/01/01 07:33:22;;;;;;;17.17;10.73;;;4.80;99.90;;;;;;6201273;23;20099;-65
2024/01/01 07:35:48;;;;;;;18.33;10.77;;;4.80;99.90;;;;;;6202302;23;20444;-65
2024/01/01 07:38:13;;;;;;;15.88;10.65;;;4.70;99.90;;;;;;6201431;23;20098;-65
2024/01/01 07:40:39;;;;;;;18.98;11.02;;;4.70;99.90;;;;;;6200577;23;20023;-66
2024/01/01 07:43:04;;;;;;;15.02;10.82;;;4.70;99.90;;;;;;6202301;23;20028;-65
2024/01/01 07:45:30;;;;;;;17.48;11.55;;;4.70;99.90;;;;;;6200891;23;20501;-65
2024/01/01 07:47:56;;;;;;;16.88;11.40;;;4.70;99.90;;;;;;6201149;23;20080;-65
2024/01/01 07:50:21;;;;;;;17.05;11.15;;;4.70;99.90;;;;;;6200457;23;20012;-65
2024/01/01 07:52:47;;;;;;;14.80;11.40;;;4.70;99.90;;;;;;6199443;23;20005;-68
2024/01/01 07:55:13;;;;;;;15.90;11.50;;;4.70;99.90;;;;;;6202132;23;20009;-70
2024/01/01 07:57:39;;;;;;;18.10;11.60;;;4.70;99.90;;;;;;6200280;23;20008;-69
2024/01/01 08:00:06;;;;;;;15.43;11.57;;;4.70;99.90;;;;;;6196345;23;20190;-68
2024/01/01 08:02:32;;;;;;;17.25;12.35;;;4.70;99.90;;;;;;6200017;23;20004;-67
2024/01/01 08:04:59;;;;;;;15.63;11.27;;;4.70;99.90;;;;;;6199884;23;20013;-67
2024/01/01 08:07:24;;;;;;;15.02;10.40;;;4.70;99.90;;;;;;6200522;23;20000;-67
2024/01/01 08:09:50;;;;;;;15.70;10.80;;;4.70;99.90;;;;;;6201169;23;20090;-68
2024/01/01 08:12:16;;;;;;;14.43;10.65;;;4.70;99.90;;;;;;6203001;23;20429;-66
2024/01/01 08:14:42;;;;;;;12.60;8.75;;;4.70;99.90;;;;;;6201920;23;20112;-65
2024/01/01 08:17:08;;;;;;;11.35;8.57;;;4.70;99.90;;;;;;6197927;23;20001;-66
2024/01/01 08:19:34;;;;;;;12.07;8.23;;;4.70;99.90;;;;;;6199224;23;20016;-65
2024/01/01 08:22:00;;;;;;;9.25;6.20;;;4.70;99.90;;;;;;6200677;23;20009;-66
2024/01/01 08:24:26;;;;;;;6.97;5.25;;;4.70;99.90;;;;;;6201565;23;20039;-65
2024/01/01 08:26:52;;;;;;;7.30;4.85;;;4.80;99.90;;;;;;6201106;23;20745;-66
2024/01/01 08:29:17;;;;;;;6.10;3.97;;;4.70;99.90;;;;;;6198200;23;20102;-66
2024/01/01 08:31:43;;;;;;;5.18;3.67;;;4.80;99.90;;;;;;6200671;23;20027;-66
2024/01/01 08:34:09;;;;;;;5.22;3.17;;;4.80;99.90;;;;;;6200659;23;20016;-66
2024/01/01 08:36:34;;;;;;;2.60;2.30;;;4.80;99.90;;;;;;6201131;23;20001;-66
2024/01/01 08:39:00;;;;;;;3.53;2.60;;;4.80;99.90;;;;;;6200573;23;20011;-66
2024/01/01 08:41:26;;;;;;;2.78;2.20;;;4.80;99.90;;;;;;6200905;23;20044;-67
2024/01/01 08:43:56;;;;;;;2.10;1.90;;;4.80;99.90;;;;;;6195947;23;20395;-66
2024/01/01 08:46:24;;;;;;;2.33;1.88;;;4.80;99.90;;;;;;6198057;23;20044;-66
2024/01/01 08:48:52;;;;;;;2.47;1.70;;;4.90;99.90;;;;;;6201177;23;20005;-66
2024/01/01 08:51:18;;;;;;;1.67;1.48;;;4.90;99.90;;;;;;6201572;23;20000;-66
2024/01/01 08:53:44;;;;;;;1.23;1.13;;;4.90;99.90;;;;;;6201452;23;20004;-66
2024/01/01 08:56:10;;;;;;;2.13;1.38;;;5.00;99.90;;;;;;6198136;23;20004;-67
2024/01/01 08:58:35;;;;;;;2.08;1.30;;;5.00;99.90;;;;;;6200884;23;20083;-70
2024/01/01 09:01:01;;;;;;;1.65;1.33;;;5.10;99.90;;;;;;6194946;23;20722;-69
2024/01/01 09:03:27;;;;;;;1.58;1.15;;;5.10;99.90;;;;;;6200271;23;20263;-68
2024/01/01 09:05:56;;;;;;;1.75;1.30;;;5.20;99.90;;;;;;6199482;23;20072;-68
2024/01/01 09:08:21;;;;;;;1.20;1.10;;;5.30;99.90;;;;;;6198996;23;20039;-68
2024/01/01 09:10:47;;;;;;;1.80;0.50;;;5.30;99.90;;;;;;6201641;23;20395;-72
2024/01/01 09:13:13;;;;;;;0.73;0.70;;;5.30;99.90;;;;;;6198717;23;20009;-67
2024/01/01 09:15:38;;;;;;;0.43;0.40;;;5.40;99.90;;;;;;6199977;23;20008;-66
2024/01/01 09:18:04;;;;;;;2.97;0.90;;;5.50;99.90;;;;;;6199565;23;20001;-67
2024/01/01 09:20:30;;;;;;;0.70;0.70;;;5.50;99.90;;;;;;6198961;23;20020;-68
2024/01/01 09:22:58;;;;;;;1.65;0.60;;;5.50;99.90;;;;;;6198524;23;20001;-68
2024/01/01 09:25:24;;;;;;;0.50;0.40;;;5.60;99.90;;;;;;6201064;23;20087;-67
2024/01/01 09:27:50;;;;;;;1.08;0.70;;;5.70;99.90;;;;;;6197372;23;20371;-69
2024/01/01 09:30:16;;;;;;;1.83;1.10;;;5.80;99.90;;;;;;6196645;23;20013;-69
2024/01/01 09:32:42;;;;;;;1.05;0.63;;;5.80;99.90;;;;;;6195004;23;20005;-68
2024/01/01 09:35:08;;;;;;;1.30;0.50;;;5.90;99.90;;;;;;6199031;23;20418;-67
2024/01/01 09:37:35;;;;;;;3.75;0.40;;;5.90;99.90;;;;;;6198008;23;20011;-67
2024/01/01 09:40:01;;;;;;;2.10;0.73;;;5.90;99.90;;;;;;6198709;23;20403;-70
2024/01/01 09:42:26;;;;;;;1.40;0.50;;;6.00;99.90;;;;;;6199262;23;20008;-65
2024/01/01 09:44:53;;;;;;;0.43;0.32;;;5.90;99.90;;;;;;6200842;23;20021;-72
2024/01/01 09:47:19;;;;;;;1.45;0.60;;;6.00;99.90;;;;;;6195617;23;20012;-71
2024/01/01 09:49:44;;;;;;;0.88;0.57;;;6.10;99.90;;;;;;6198824;23;20051;-71
2024/01/01 09:52:14;;;;;;;0.45;0.40;;;6.10;99.90;;;;;;6199683;23;20005;-75
2024/01/01 09:54:40;;;;;;;1.75;0.90;;;6.10;99.90;;;;;;6200587;23;20000;-70
2024/01/01 09:57:06;;;;;;;1.02;0.55;;;6.20;99.90;;;;;;6200045;23;20517;-77
2024/01/01 09:59:36;;;;;;;1.48;0.93;;;6.20;99.90;;;;;;6198989;23;20011;-72
2024/01/01 10:02:07;;;;;;;1.38;0.80;;;6.30;99.90;;;;;;6200620;23;20394;-80
2024/01/01 10:04:34;;;;;;;1.67;0.90;;;6.30;99.90;;;;;;6201244;23;20008;-68
2024/01/01 10:07:00;;;;;;;1.00;0.70;;;6.30;99.90;;;;;;6200039;23;20012;-71
2024/01/01 10:09:27;;;;;;;1.55;0.80;;;6.40;99.90;;;;;;6200071;23;20387;-70
2024/01/01 10:11:52;;;;;;;2.05;0.80;;;6.40;99.90;;;;;;6201002;23;20490;-70
2024/01/01 10:14:19;;;;;;;2.00;0.50;;;6.40;99.90;;;;;;6198522;23;20012;-67
2024/01/01 10:16:44;;;;;;;1.17;0.70;;;6.40;99.90;;;;;;6198933;23;20008;-73
2024/01/01 10:19:10;;;;;;;1.30;0.80;;;6.30;99.90;;;;;;6198158;23;20505;-69
2024/01/01 10:21:38;;;;;;;2.78;0.70;;;6.40;99.90;;;;;;6197398;23;20088;-72
2024/01/01 10:24:16;;;;;;;1.23;0.63;;;6.40;99.90;;;;;;6200828;23;20001;-72
2024/01/01 10:26:46;;;;;;;1.50;0.77;;;6.50;99.90;;;;;;6200032;23;20214;-71
2024/01/01 10:29:12;;;;;;;0.88;0.70;;;6.50;99.90;;;;;;6200075;23;20003;-72
2024/01/01 10:31:44;;;;;;;0.85;0.60;;;6.60;99.90;;;;;;6200133;23;20005;-72
2024/01/01 10:34:13;;;;;;;2.03;0.68;;;6.60;99.90;;;;;;6200162;23;20898;-71
2024/01/01 10:36:42;;;;;;;1.10;0.80;;;6.70;99.90;;;;;;6195520;23;20020;-69
2024/01/01 10:39:09;;;;;;;0.82;0.60;;;6.70;99.90;;;;;;6197052;23;20000;-71
2024/01/01 10:41:36;;;;;;;3.40;0.52;;;6.70;99.90;;;;;;6199292;23;20013;-71
2024/01/01 10:44:04;;;;;;;2.20;0.57;;;6.70;99.90;;;;;;6199053;23;20004;-71
2024/01/01 10:46:36;;;;;;;2.40;0.60;;;6.70;99.90;;;;;;6197544;23;20023;-74
2024/01/01 10:49:02;;;;;;;;;;;6.80;99.90;;;;;;6198931;23;20047;-73
2024/01/01 10:51:52;;;;;;;2.05;0.82;;;6.80;99.90;;;;;;6196335;23;20241;-71
2024/01/01 10:54:45;;;;;;;0.60;0.60;;;6.80;99.90;;;;;;6199197;23;20005;-71
2024/01/01 10:57:25;;;;;;;0.90;0.60;;;6.80;99.90;;;;;;6199195;23;20517;-71
2024/01/01 11:00:35;;;;;;;0.77;0.60;;;6.80;99.90;;;;;;6199231;23;20031;-71
2024/01/01 11:03:02;;;;;;;3.92;0.70;;;7.00;99.90;;;;;;6197756;23;20055;-72
2024/01/01 11:05:33;;;;;;;2.38;0.85;;;7.00;99.90;;;;;;6199178;23;20009;-72
2024/01/01 11:08:00;;;;;;;2.23;1.17;;;7.00;99.90;;;;;;6196261;23;20009;-71
2024/01/01 11:10:42;;;;;;;2.28;1.50;;;7.00;99.90;;;;;;6198493;23;20001;-71
2024/01/01 11:13:12;;;;;;;;;;;6.80;99.90;;;;;;6187833;23;20407;-72
2024/01/01 11:15:45;;;;;;;1.05;0.80;;;6.80;99.90;;;;;;6196962;23;20497;-72
2024/01/01 11:18:18;;;;;;;1.55;1.00;;;6.80;99.90;;;;;;6199718;23;20007;-73
2024/01/01 11:20:54;;;;;;;2.78;0.85;;;6.80;99.90;;;;;;6199890;23;20115;-71
2024/01/01 11:23:43;;;;;;;2.35;1.17;;;6.70;99.90;;;;;;6198211;23;20020;-71
2024/01/01 11:26:32;;;;;;;1.90;1.10;;;6.70;99.90;;;;;;6198721;23;20067;-72
2024/01/01 11:29:02;;;;;;;1.98;0.73;;;6.80;99.90;;;;;;6199470;23;20004;-73
2024/01/01 11:31:29;;;;;;;1.70;1.00;;;6.80;99.90;;;;;;6198929;23;20013;-71
2024/01/01 11:34:02;;;;;;;4.05;1.70;;;6.80;99.90;;;;;;6197819;23;20024;-71
2024/01/01 11:36:28;;;;;;;1.75;1.17;;;6.80;99.90;;;;;;6199399;23;20036;-71
2024/01/01 11:38:55;;;;;;;1.58;1.10;;;6.80;99.90;;;;;;6199080;23;20059;-74
2024/01/01 11:41:29;;;;;;;2.60;0.90;;;6.90;99.90;;;;;;6196175;23;20044;-71
2024/01/01 11:44:07;;;;;;;2.45;1.27;;;7.00;99.90;;;;;;6197283;23;20005;-72
2024/01/01 11:46:33;;;;;;;1.27;1.00;;;6.90;99.90;;;;;;6198104;23;20275;-72
2024/01/01 11:48:59;;;;;;;3.33;1.10;;;6.90;99.90;;;;;;6194676;23;20012;-73
2024/01/01 11:51:26;;;;;;;1.63;0.73;;;6.90;99.90;;;;;;6195695;23;20087;-71
2024/01/01 11:54:10;;;;;;;1.83;1.00;;;6.90;99.90;;;;;;6199719;23;20008;-72
2024/01/01 11:56:39;;;;;;;3.05;1.92;;;6.90;99.90;;;;;;6196695;23;20362;-72
2024/01/01 11:59:06;;;;;;;1.88;1.20;;;6.90;99.90;;;;;;6198100;23;20020;-72
2024/01/01 12:01:38;;;;;;;2.40;1.30;;;6.90;99.90;;;;;;6195250;23;20044;-73
2024/01/01 12:04:05;;;;;;;;;;;6.90;99.90;;;;;;6195701;23;20011;-73
2024/01/01 12:06:32;;;;;;;2.05;1.42;;;7.00;99.90;;;;;;6199018;23;19904;-72
2024/01/01 12:09:02;;;;;;;1.60;1.20;;;7.10;99.90;;;;;;6199738;23;20008;-72
2024/01/01 12:11:28;;;;;;;7.75;1.75;;;7.10;99.90;;;;;;6202814;23;20004;-72
2024/01/01 12:13:56;;;;;;;1.85;1.30;;;7.10;99.90;;;;;;6197103;23;20087;-77
2024/01/01 12:16:22;;;;;;;2.00;1.45;;;7.10;99.90;;;;;;6199623;23;20466;-73
2024/01/01 12:18:58;;;;;;;3.55;1.33;;;7.20;99.90;;;;;;6201501;23;20032;-71
2024/01/01 12:21:24;;;;;;;2.03;1.60;;;7.20;99.90;;;;;;6201110;23;20111;-70
2024/01/01 12:24:02;;;;;;;4.75;1.55;;;7.30;99.90;;;;;;6200232;23;20029;-71
2024/01/01 12:26:27;;;;;;;2.45;1.27;;;7.40;99.90;;;;;;6196496;23;20009;-71
2024/01/01 12:29:13;;;;;;;4.57;1.60;;;7.50;99.90;;;;;;6197418;23;20141;-70
2024/01/01 12:31:43;;;;;;;2.75;1.27;;;7.50;99.90;;;;;;6202435;23;20070;-74
2024/01/01 12:34:13;;;;;;;3.40;1.35;;;7.60;99.90;;;;;;6202179;23;20194;-73
2024/01/01 12:36:39;;;;;;;5.22;1.67;;;7.60;99.90;;;;;;6201185;23;20000;-72
2024/01/01 12:39:04;;;;;;;3.83;1.58;;;7.70;99.90;;;;;;6198860;23;20307;-71
2024/01/01 12:41:30;;;;;;;2.05;1.15;;;7.70;99.90;;;;;;6201522;23;20024;-71
2024/01/01 12:43:59;;;;;;;2.83;1.50;;;7.70;99.90;;;;;;6200558;23;20240;-72